Callisburg, Texas
Current Conditions -  °F | °C
As of 10:15 AM on Wednesday 26 Nov 2014 (Local Time) from KGLE Reporting Station
Clear Clear  
Wind Chill: 52°   Ceiling: Unl
Heat Index: 52°   Visibility: 10mi
Dew Point: 31°   Wind: 16mph
Humidity: 45%   Direction: 340°NNW
Pressure: 30.18"   Gusts: 23mph
Location:  33.7001°N, 97.0805°W
Report Text: KGLE 261615Z AUTO 34014G20KT 10SM CLR 11/00 A3018 RMK AO2 T01101005
Loading
Personal Weather Stations






























Interactive Weather Map New forecast layout! Learn more

10-Day Weather Forecast

Advertisements
Track Severe Weather on mobile